Alamo, IN

12:01 AM EDT on October 01, 2014 (GMT -0400)
Bainbridge | Change Station
CLOSE
Current Station
Personal Weather Station
Location: Bainbridge, IN
Elevation: 872 ft
Nearby Weather Stations

Elev 872 ft 39.78 °N, 86.84 °W | Updated 1 minute ago

Clear
Clear
52.2 °F
Feels Like 52.2 °F
N
0.3
Wind Variable Wind from East
Gusts 2.2 mph

Today
High -- | Low -- °F
--% Chance of Precip.
Yesterday
High -- | Low -- °F
Precip. -- in
7:44 AM 7:30 PM
Waxing Crescent, 43% visible
Pressure 30.02 in
Visibility 10.0 miles
Clouds Clear
Dew Point 51 °F
Humidity 96%
Rainfall 0.00 in
Snow Depth Not available.
UV 0 out of 12
Pollen 4.70 out of 12
Air Quality Not available.
Flu Activity Not available.
METAR KLAF 010354Z AUTO 05005KT 10SM CLR 09/08 A3001 RMK AO2 SLP164 T00940078 TSNO

More Conditions Fewer Conditions

Pressure 30.02 in
Visibility 10.0 miles
Clouds Clear
Dew Point 51 °F
Humidity 96%
Rainfall 0.00 in
Snow Depth Not available.
UV 0 out of 12
Pollen 4.70 out of 12
Air Quality Not available.
Flu Activity Not available.
METAR KLAF 010354Z AUTO 05005KT 10SM CLR 09/08 A3001 RMK AO2 SLP164 T00940078 TSNO

More Conditions Fewer Conditions

10-Day Weather Forecast

Almanac

Astronomy

Oct. 01, 2014 Rise Set
Actual Time 7:44 AM EDT 7:30 PM EDT
Civil Twilight 7:17 AM EDT 7:57 PM EDT
Nautical Twilight 6:46 AM EDT 8:28 PM EDT
Astronomical Twilight 6:14 AM EDT 9:00 PM EDT
Moon 2:44 PM EDT 12:01 AM EDT
Length of Visible Light 12h 39m
Length of Day
11h 46m
Tomorrow will be 2m 36s shorter.
Waxing Crescent, 43% of the Moon is Illuminated
Today
Waxing Crescent
Oct 1
First Quarter
Oct 8
Full
Oct 15
Last Quarter
Oct 23
New

Yesterday's Extremes

State Highs State Lows

Community

WunderPhotos

Upload Photos

1,757,840 photos uploaded!

Nearby

Snow Depth

Station Depth Elevation
No new snow has been reported.

Earthquake Activity

City Distance Mag. Time & Date
No recent earthquake activity has been reported nearby.
Minimum magnitude displayed is 2.5.

Coastal Water Temperatures

Place Temperature
No Stations Reporting

Nearby Weather Stations